createdAt,value
2022-08-29T00:00:41.924Z,2.30
2022-08-29T00:03:43.587Z,2.22
2022-08-29T00:06:45.130Z,2.30
2022-08-29T00:09:46.650Z,2.00
2022-08-29T00:12:48.390Z,2.22
2022-08-29T00:15:50.157Z,2.00
2022-08-29T00:18:51.810Z,2.95
2022-08-29T00:21:53.843Z,1.80
2022-08-29T00:24:55.388Z,1.90
2022-08-29T00:27:57.891Z,1.88
2022-08-29T00:30:59.454Z,2.45
2022-08-29T00:34:00.993Z,2.05
2022-08-29T00:37:02.533Z,1.90
2022-08-29T00:40:07.470Z,2.00
2022-08-29T00:43:09.678Z,2.05
2022-08-29T00:46:32.370Z,1.83
2022-08-29T00:49:39.171Z,1.70
2022-08-29T00:52:46.235Z,1.92
2022-08-29T00:55:48.258Z,2.10
2022-08-29T00:58:57.432Z,2.00
2022-08-29T01:01:59.761Z,1.90
2022-08-29T01:05:01.464Z,2.20
2022-08-29T01:08:04.507Z,2.40
2022-08-29T01:11:26.356Z,2.30
2022-08-29T01:14:28.579Z,2.53
2022-08-29T01:17:36.903Z,2.47
2022-08-29T01:20:53.576Z,2.00
2022-08-29T01:24:16.589Z,2.33
2022-08-29T01:27:25.099Z,2.20
2022-08-29T01:30:26.651Z,2.05
2022-08-29T01:33:39.988Z,2.42
2022-08-29T01:36:50.324Z,2.55
2022-08-29T01:39:51.903Z,2.20
2022-08-29T01:42:55.435Z,2.35
2022-08-29T01:45:57.789Z,2.67
2022-08-29T01:49:02.005Z,2.50
2022-08-29T01:52:03.972Z,2.28
2022-08-29T01:55:05.935Z,2.35
2022-08-29T01:58:07.684Z,2.42
2022-08-29T02:01:11.992Z,2.50
2022-08-29T02:04:13.682Z,2.22
2022-08-29T02:07:17.759Z,2.35
2022-08-29T02:10:19.814Z,2.30
2022-08-29T02:13:24.020Z,2.20
2022-08-29T02:16:27.969Z,2.53
2022-08-29T02:19:29.629Z,2.28
2022-08-29T02:22:32.345Z,2.38
2022-08-29T02:25:44.132Z,2.63
2022-08-29T02:28:46.067Z,2.58
2022-08-29T02:31:47.691Z,2.40
2022-08-29T02:34:49.422Z,2.10
2022-08-29T02:37:52.337Z,2.35
2022-08-29T02:40:54.801Z,2.53
2022-08-29T02:43:56.360Z,2.50
2022-08-29T02:46:58.029Z,2.60
2022-08-29T02:49:59.809Z,2.80
2022-08-29T02:53:01.845Z,2.25
2022-08-29T02:56:03.885Z,2.10
2022-08-29T02:59:05.891Z,2.05
2022-08-29T03:02:07.767Z,2.17
2022-08-29T03:05:10.094Z,2.40
2022-08-29T03:08:15.661Z,2.05
2022-08-29T03:11:18.229Z,2.00
2022-08-29T03:14:19.776Z,2.05
2022-08-29T03:17:21.322Z,2.35
2022-08-29T03:20:24.580Z,2.10
2022-08-29T03:23:26.307Z,2.13
2022-08-29T03:26:27.834Z,2.40
2022-08-29T03:29:29.453Z,2.17
2022-08-29T03:32:31.085Z,2.00
2022-08-29T03:35:32.595Z,2.10
2022-08-29T03:38:35.673Z,2.40
2022-08-29T03:41:37.243Z,2.42
2022-08-29T03:44:41.146Z,2.17
2022-08-29T03:47:42.876Z,2.20
2022-08-29T03:50:44.483Z,2.20
2022-08-29T03:53:46.721Z,2.13
2022-08-29T03:56:48.796Z,2.25
2022-08-29T03:59:54.293Z,2.17
2022-08-29T04:02:58.081Z,2.15
2022-08-29T04:05:59.735Z,2.30
2022-08-29T04:09:01.402Z,2.47
2022-08-29T04:12:03.464Z,1.90
2022-08-29T04:15:06.071Z,1.90
2022-08-29T04:18:10.802Z,2.03
2022-08-29T04:21:13.005Z,2.15
2022-08-29T04:24:15.977Z,1.58
2022-08-29T04:27:17.536Z,2.50
2022-08-29T04:30:22.719Z,1.83
2022-08-29T04:33:26.082Z,2.20
2022-08-29T04:36:28.257Z,2.22
2022-08-29T04:39:29.832Z,2.00
2022-08-29T04:42:31.368Z,2.10
2022-08-29T04:45:41.734Z,2.10
2022-08-29T04:51:44.811Z,1.80
2022-08-29T04:54:46.800Z,2.00
2022-08-29T04:57:50.388Z,2.30
2022-08-29T05:00:52.794Z,1.98
2022-08-29T05:03:55.263Z,2.15
2022-08-29T05:06:57.045Z,2.00
2022-08-29T05:10:02.853Z,2.10
2022-08-29T05:13:04.410Z,2.20
2022-08-29T05:16:08.047Z,2.05
2022-08-29T05:19:10.099Z,2.22
2022-08-29T05:22:13.710Z,1.95
2022-08-29T05:25:18.202Z,1.88
2022-08-29T05:28:20.111Z,2.20
2022-08-29T05:31:22.373Z,2.15
2022-08-29T05:34:34.666Z,1.80
2022-08-29T05:37:37.866Z,2.20
2022-08-29T05:40:39.605Z,2.00
2022-08-29T05:43:41.176Z,1.83
2022-08-29T05:46:42.781Z,2.00
2022-08-29T05:49:45.920Z,2.00
2022-08-29T05:52:47.535Z,1.90
2022-08-29T05:55:49.055Z,2.35
2022-08-29T05:58:50.624Z,2.00
2022-08-29T06:01:52.220Z,2.03
2022-08-29T06:04:53.727Z,1.80
2022-08-29T06:07:55.301Z,1.90
2022-08-29T06:10:56.878Z,1.88
2022-08-29T06:13:59.898Z,1.88
2022-08-29T06:17:01.923Z,1.90
2022-08-29T06:20:08.643Z,2.35
2022-08-29T06:23:10.180Z,1.70
2022-08-29T06:26:13.218Z,2.25
2022-08-29T06:29:15.981Z,2.00
2022-08-29T06:32:17.549Z,1.90
2022-08-29T06:35:19.085Z,1.90
2022-08-29T06:38:20.957Z,2.10
2022-08-29T06:41:24.556Z,2.35
2022-08-29T06:44:26.728Z,2.03
2022-08-29T06:47:32.513Z,1.92
2022-08-29T06:50:41.271Z,2.10
2022-08-29T06:53:46.715Z,1.95
2022-08-29T06:56:50.825Z,1.90
2022-08-29T06:59:52.411Z,1.90
2022-08-29T07:02:55.021Z,2.00
2022-08-29T07:05:56.657Z,2.00
2022-08-29T07:08:59.080Z,2.30
2022-08-29T07:12:00.907Z,2.00
2022-08-29T07:15:02.522Z,2.10
2022-08-29T07:18:04.283Z,2.20
2022-08-29T07:21:11.241Z,2.10
2022-08-29T07:24:13.399Z,1.55
2022-08-29T07:27:15.448Z,2.13
2022-08-29T07:30:17.474Z,1.75
2022-08-29T07:33:19.273Z,1.90
2022-08-29T07:36:20.838Z,1.75
2022-08-29T07:39:22.907Z,2.10
2022-08-29T07:42:24.500Z,1.90
2022-08-29T07:45:26.205Z,1.50
2022-08-29T07:48:27.800Z,2.05
2022-08-29T07:51:29.671Z,2.05
2022-08-29T07:54:31.340Z,1.70
2022-08-29T07:57:33.382Z,1.88
2022-08-29T08:00:38.720Z,1.98
2022-08-29T08:03:42.450Z,1.70
2022-08-29T08:06:44.480Z,2.13
2022-08-29T08:09:46.875Z,2.00
2022-08-29T08:12:49.814Z,1.95
2022-08-29T08:15:51.362Z,2.20
2022-08-29T08:18:53.683Z,2.05
2022-08-29T08:21:55.259Z,2.05
2022-08-29T08:24:56.835Z,2.05
2022-08-29T08:27:58.842Z,2.03
2022-08-29T08:31:05.717Z,2.45
2022-08-29T08:34:07.771Z,2.35
2022-08-29T08:37:10.041Z,2.00
2022-08-29T08:40:21.474Z,1.75
2022-08-29T08:43:33.487Z,1.85
2022-08-29T08:46:43.057Z,1.67
2022-08-29T08:49:51.697Z,2.20
2022-08-29T08:53:07.381Z,2.20
2022-08-29T08:56:13.921Z,2.17
2022-08-29T08:59:25.389Z,2.00
2022-08-29T09:03:08.671Z,2.17
2022-08-29T09:06:16.449Z,2.13
2022-08-29T09:09:41.103Z,2.20
2022-08-29T09:13:05.308Z,2.28
2022-08-29T09:16:17.838Z,2.22
2022-08-29T09:19:19.440Z,2.10
2022-08-29T09:22:27.505Z,2.55
2022-08-29T09:25:36.428Z,2.60
2022-08-29T09:28:38.472Z,2.72
2022-08-29T09:31:41.047Z,2.50
2022-08-29T09:38:17.222Z,2.35
2022-08-29T09:41:28.439Z,2.45
2022-08-29T09:44:35.346Z,2.30
2022-08-29T09:47:37.211Z,2.42
2022-08-29T09:50:39.018Z,2.65
2022-08-29T09:53:41.345Z,2.25
2022-08-29T09:56:58.307Z,2.60
2022-08-29T10:00:13.323Z,2.33
2022-08-29T10:03:23.545Z,2.38
2022-08-29T10:09:31.455Z,2.22
2022-08-29T10:12:57.357Z,2.53
2022-08-29T10:16:02.055Z,2.22
2022-08-29T10:19:09.918Z,2.53
2022-08-29T10:22:34.226Z,2.30
2022-08-29T10:25:41.289Z,2.50
2022-08-29T10:28:53.137Z,2.15
2022-08-29T10:32:25.613Z,2.40
2022-08-29T10:35:40.292Z,2.58
2022-08-29T10:39:11.127Z,2.40
2022-08-29T10:42:16.058Z,2.38
2022-08-29T10:45:37.228Z,2.40
2022-08-29T10:48:54.213Z,2.50
2022-08-29T10:52:20.710Z,2.95
2022-08-29T10:55:36.679Z,2.20
2022-08-29T10:58:40.897Z,2.50
2022-08-29T11:01:49.720Z,2.40
2022-08-29T11:04:55.103Z,2.75
2022-08-29T11:08:05.240Z,2.50
2022-08-29T11:11:06.818Z,2.60
2022-08-29T11:14:19.868Z,2.58
2022-08-29T11:17:24.745Z,2.17
2022-08-29T11:20:35.685Z,2.35
2022-08-29T11:23:46.935Z,2.10
2022-08-29T11:27:07.258Z,2.25
2022-08-29T11:30:23.155Z,2.40
2022-08-29T11:33:49.437Z,2.38
2022-08-29T11:37:21.184Z,2.28
2022-08-29T11:44:11.926Z,2.28
2022-08-29T11:47:32.223Z,2.20
2022-08-29T11:50:43.012Z,2.30
2022-08-29T11:53:44.540Z,2.28
2022-08-29T11:56:46.189Z,2.42
2022-08-29T11:59:54.616Z,2.20
2022-08-29T12:02:56.463Z,2.22
2022-08-29T12:06:04.082Z,2.20
2022-08-29T12:09:17.831Z,2.20
2022-08-29T12:12:37.623Z,2.10
2022-08-29T12:15:52.529Z,1.88
2022-08-29T12:18:56.352Z,2.28
2022-08-29T12:21:57.943Z,2.33
2022-08-29T12:25:28.217Z,2.00
2022-08-29T12:28:34.723Z,2.20
2022-08-29T12:32:17.846Z,2.30
2022-08-29T12:35:52.365Z,1.98
2022-08-29T12:39:14.242Z,2.20
2022-08-29T12:42:40.102Z,2.05
2022-08-29T12:45:46.780Z,2.20
2022-08-29T12:49:11.094Z,2.33
2022-08-29T12:52:26.797Z,2.08
2022-08-29T12:55:59.053Z,2.30
2022-08-29T12:59:03.900Z,2.28
2022-08-29T13:02:06.846Z,2.17
2022-08-29T13:05:23.427Z,1.92
2022-08-29T13:08:37.161Z,2.05
2022-08-29T13:15:09.014Z,2.10
2022-08-29T13:18:16.393Z,2.20
2022-08-29T13:21:27.055Z,2.25
2022-08-29T13:24:28.624Z,2.20
2022-08-29T13:27:30.464Z,2.00
2022-08-29T13:30:31.989Z,2.20
2022-08-29T13:33:35.179Z,2.00
2022-08-29T13:36:47.220Z,2.40
2022-08-29T13:39:48.850Z,2.25
2022-08-29T13:42:50.450Z,2.17
2022-08-29T13:46:06.230Z,2.40
2022-08-29T13:49:09.704Z,2.30
2022-08-29T13:52:12.006Z,2.28
2022-08-29T13:55:13.586Z,2.00
2022-08-29T13:58:20.901Z,2.30
2022-08-29T14:02:08.467Z,2.63
2022-08-29T14:04:48.170Z,2.20
2022-08-29T14:07:49.832Z,2.17
2022-08-29T14:10:52.108Z,2.30
2022-08-29T14:13:54.945Z,2.35
2022-08-29T14:16:56.949Z,2.20
2022-08-29T14:19:58.590Z,2.03
2022-08-29T14:23:00.283Z,2.08
2022-08-29T14:26:01.844Z,2.28
2022-08-29T14:29:03.574Z,2.30
2022-08-29T14:32:05.303Z,2.05
2022-08-29T14:35:09.130Z,2.10
2022-08-29T14:38:11.551Z,2.08
2022-08-29T14:41:13.345Z,1.98
2022-08-29T14:44:15.951Z,2.40
2022-08-29T14:47:22.222Z,2.35
2022-08-29T14:50:24.076Z,2.00
2022-08-29T14:53:25.624Z,1.92
2022-08-29T14:56:47.636Z,2.00
2022-08-29T14:59:50.924Z,2.00
2022-08-29T15:02:52.663Z,2.10
2022-08-29T15:05:54.355Z,1.95
2022-08-29T15:08:55.906Z,2.10
2022-08-29T15:11:58.008Z,2.05
2022-08-29T15:14:59.980Z,2.20
2022-08-29T15:18:05.314Z,2.13
2022-08-29T15:21:06.970Z,2.20
2022-08-29T15:24:08.652Z,1.83
2022-08-29T15:27:10.844Z,1.90
2022-08-29T15:30:17.481Z,1.88
2022-08-29T15:33:19.235Z,2.10
2022-08-29T15:36:20.798Z,1.95
2022-08-29T15:39:23.096Z,1.90
2022-08-29T15:42:30.152Z,2.03
2022-08-29T15:45:31.741Z,1.95
2022-08-29T15:48:33.509Z,2.05
2022-08-29T15:51:35.647Z,1.85
2022-08-29T15:54:37.436Z,1.90
2022-08-29T15:57:51.604Z,1.95
2022-08-29T16:00:54.195Z,2.00
2022-08-29T16:03:55.757Z,2.10
2022-08-29T16:06:57.847Z,1.80
2022-08-29T16:10:00.419Z,1.80
2022-08-29T16:13:02.603Z,1.88
2022-08-29T16:16:04.272Z,2.10
2022-08-29T16:19:06.490Z,1.67
2022-08-29T16:22:08.173Z,1.70
2022-08-29T16:25:11.341Z,1.83
2022-08-29T16:28:13.005Z,2.13
2022-08-29T16:31:16.049Z,2.00
2022-08-29T16:34:18.293Z,1.83
2022-08-29T16:37:21.461Z,1.75
2022-08-29T16:40:23.170Z,1.80
2022-08-29T16:43:24.779Z,1.70
2022-08-29T16:46:31.154Z,1.67
2022-08-29T16:49:33.817Z,1.90
2022-08-29T16:52:35.407Z,2.00
2022-08-29T16:55:37.069Z,1.70
2022-08-29T16:58:57.249Z,1.70
2022-08-29T17:01:59.275Z,1.85
2022-08-29T17:05:01.024Z,1.58
2022-08-29T17:08:02.716Z,1.60
2022-08-29T17:11:04.958Z,1.63
2022-08-29T17:14:07.705Z,1.60
2022-08-29T17:17:09.611Z,2.03
2022-08-29T17:20:11.851Z,1.60
2022-08-29T17:23:15.158Z,1.83
2022-08-29T17:26:17.600Z,1.73
2022-08-29T17:29:19.226Z,1.55
2022-08-29T17:32:20.897Z,1.58
2022-08-29T17:35:22.437Z,1.65
2022-08-29T17:38:24.921Z,1.90
2022-08-29T17:41:27.816Z,1.45
2022-08-29T17:44:34.849Z,1.63
2022-08-29T17:47:36.537Z,1.67
2022-08-29T17:50:39.052Z,1.60
2022-08-29T17:53:40.876Z,1.45
2022-08-29T17:56:54.285Z,1.60
2022-08-29T17:59:56.341Z,1.55
2022-08-29T18:02:58.287Z,1.60
2022-08-29T18:05:59.834Z,1.55
2022-08-29T18:09:01.662Z,1.67
2022-08-29T18:12:03.467Z,1.67
2022-08-29T18:15:07.263Z,1.58
2022-08-29T18:18:09.616Z,1.70
2022-08-29T18:21:13.224Z,1.45
2022-08-29T18:24:17.243Z,1.70
2022-08-29T18:27:18.974Z,1.50
2022-08-29T18:30:20.737Z,1.65
2022-08-29T18:33:22.801Z,1.52
2022-08-29T18:36:26.263Z,1.65
2022-08-29T18:39:27.879Z,1.70
2022-08-29T18:42:40.343Z,1.48
2022-08-29T18:45:42.947Z,1.55
2022-08-29T18:48:45.057Z,1.63
2022-08-29T18:51:46.878Z,1.58
2022-08-29T18:54:48.514Z,1.83
2022-08-29T18:57:50.552Z,1.60
2022-08-29T19:00:52.603Z,1.70
2022-08-29T19:03:55.566Z,1.55
2022-08-29T19:06:57.088Z,1.40
2022-08-29T19:09:58.656Z,1.55
2022-08-29T19:13:00.587Z,1.60
2022-08-29T19:16:03.911Z,1.67
2022-08-29T19:19:06.159Z,1.60
2022-08-29T19:22:14.837Z,1.60
2022-08-29T19:25:16.398Z,1.50
2022-08-29T19:28:19.828Z,1.63
2022-08-29T19:31:22.694Z,1.50
2022-08-29T19:34:24.336Z,1.50
2022-08-29T19:37:26.588Z,1.60
2022-08-29T19:40:28.862Z,1.27
2022-08-29T19:43:33.077Z,1.50
2022-08-29T19:46:35.989Z,1.33
2022-08-29T19:49:41.011Z,1.58
2022-08-29T19:52:45.996Z,1.30
2022-08-29T19:55:48.283Z,1.50
2022-08-29T19:58:50.455Z,1.60
2022-08-29T20:01:52.119Z,1.50
2022-08-29T20:04:53.733Z,1.52
2022-08-29T20:07:55.323Z,1.70
2022-08-29T20:10:56.901Z,1.33
2022-08-29T20:13:58.559Z,1.60
2022-08-29T20:17:01.878Z,1.20
2022-08-29T20:20:10.561Z,1.40
2022-08-29T20:23:13.059Z,1.40
2022-08-29T20:26:14.938Z,1.80
2022-08-29T20:29:17.726Z,1.27
2022-08-29T20:32:19.248Z,1.35
2022-08-29T20:35:40.956Z,1.23
2022-08-29T20:38:42.524Z,1.15
2022-08-29T20:41:58.325Z,1.50
2022-08-29T20:45:00.317Z,1.40
2022-08-29T20:48:01.949Z,1.33
2022-08-29T20:51:06.663Z,1.35
2022-08-29T20:54:08.202Z,1.33
2022-08-29T20:57:10.208Z,1.40
2022-08-29T21:00:14.937Z,1.50
2022-08-29T21:03:35.356Z,1.17
2022-08-29T21:06:37.297Z,1.38
2022-08-29T21:09:46.044Z,1.30
2022-08-29T21:12:48.597Z,1.35
2022-08-29T21:15:50.616Z,1.50
2022-08-29T21:18:55.353Z,1.30
2022-08-29T21:22:01.809Z,1.50
2022-08-29T21:25:03.515Z,1.60
2022-08-29T21:28:06.569Z,1.30
2022-08-29T21:31:10.793Z,1.50
2022-08-29T21:34:12.897Z,1.50
2022-08-29T21:37:14.814Z,1.40
2022-08-29T21:40:16.977Z,1.30
2022-08-29T21:43:19.851Z,1.10
2022-08-29T21:46:31.173Z,1.33
2022-08-29T21:49:33.049Z,1.00
2022-08-29T21:52:35.098Z,1.40
2022-08-29T21:55:36.676Z,1.17
2022-08-29T21:58:38.330Z,1.30
2022-08-29T22:01:41.443Z,1.38
2022-08-29T22:04:43.067Z,1.20
2022-08-29T22:07:44.925Z,1.40
2022-08-29T22:10:46.828Z,1.45
2022-08-29T22:13:49.257Z,1.30
2022-08-29T22:16:51.226Z,1.30
2022-08-29T22:19:52.790Z,1.20
2022-08-29T22:22:54.775Z,1.10
2022-08-29T22:25:56.654Z,1.02
2022-08-29T22:28:58.277Z,1.40
2022-08-29T22:32:00.487Z,1.23
2022-08-29T22:35:02.072Z,1.05
2022-08-29T22:38:03.796Z,1.30
2022-08-29T22:41:09.656Z,1.17
2022-08-29T22:47:36.394Z,1.00
2022-08-29T22:50:37.916Z,1.17
2022-08-29T22:53:40.021Z,1.15
2022-08-29T22:56:44.828Z,1.13
2022-08-29T22:59:48.590Z,1.13
2022-08-29T23:02:51.760Z,1.13
2022-08-29T23:05:53.400Z,1.20
2022-08-29T23:08:55.952Z,1.20
2022-08-29T23:11:57.485Z,1.27
2022-08-29T23:14:59.980Z,1.20
2022-08-29T23:18:01.542Z,1.00
2022-08-29T23:21:03.545Z,1.23
2022-08-29T23:24:07.740Z,1.20
2022-08-29T23:27:09.374Z,1.20
2022-08-29T23:30:12.854Z,1.10
2022-08-29T23:33:15.486Z,0.90
2022-08-29T23:36:17.528Z,0.88
2022-08-29T23:39:19.128Z,1.15
2022-08-29T23:42:20.716Z,1.13
2022-08-29T23:45:23.114Z,1.10
2022-08-29T23:48:25.895Z,1.05
2022-08-29T23:51:27.856Z,1.00
2022-08-29T23:54:31.317Z,1.00
2022-08-29T23:57:34.497Z,1.05
